サンパウロ/グアルーリョス の空港の天気 - METARとTAF

グアルーリョス国際空港 (サンパウロ) ( SBGR / GRU ) - ブラジル サンパウロ州サンパウロ市
飛行場実況気象(Metar)
観測時間07/29 00:00 BRT (07/29 03:00 UTC)
風向・風速西 6m/s
視程10km以上
天気現象
なし
気温9℃
湿度71%
気圧1022hPa
METARSBGR 290300Z 26012KT CAVOK 09/04 Q1022
過去の天気等 Google飛行場航空写真 Wunderground天気予報

過去48時間のMETAR

飛行場予報(TAF)
発表時間: 7/28 19:00 BRT (7/28 22:00 UTC)
予報対象時間: 28日21時 BRT ~ 30日3時 BRT
風向・風速南 4m/s
視程8000m
全天の8割程度の雲 雲底高度 370m
28日21時 BRT ~ 29日1時 BRT に一時的に
風向・風速西 3m/s
視程4000m
天気現象霧雨
全天の8割程度の雲 雲底高度 240m
全天の8割程度の雲 雲底高度 370m
29日4時 BRT ~ 29日10時 BRT に一時的に
風向・風速南西 3m/s
視程3000m
天気現象霧雨 もや
全天の8割程度の雲 雲底高度 150m
29日14時 BRT ~ 29日22時 BRT に一時的に
視程4000m
天気現象霧雨 もや
全天の8割程度の雲 雲底高度 210m
29日22時 BRT から 確率 30% で
風向・風速南南東 3m/s
視程7000m
全天の4割程度の雲 雲底高度 240m
TAF SBGR 282200Z 2900/3006 17007KT 8000 BKN012 TN04/2909Z TX12/2918Z
TEMPO 2900/2904 26005KT 4000 DZ BKN008 BKN012
TEMPO 2907/2913 22005KT 3000 DZ BR BKN005
TEMPO 2917/3001 4000 DZ BR BKN007
PROB30 3001/3006 15005KT 7000 SCT008 RMK PGO